EKVD

Kolding Vamdrup Airport

Kolding / Vamdrup, Denmark
METAR EKVD 152150Z AUTO 19005KT //// ///////// 18/16 Q1016
Observed Flight Rules
Aug-15 @ 21:50 UTC (36 minutes ago)
Wind
190° at 5 knots
Temperatures Readings
Current 18°C / 64°F
Dewpoint 16°C / 61°F
Humidity 88%
Altimeter 30" Hg
Pressure 1016 hPa
Elevation 45
METAR EKVD 152150Z AUTO 19005KT //// ///////// 18/16 Q1016
Observed Flight Rules
Aug-15 @ 21:50 UTC
(36 minutes ago)
Wind
190° at 5 knots
Temperature Dewpoint
18°C / 64°F 16°C / 61°F
Humidity Altimeter Pressure
88% 30" Hg 1016 hPa